aviador You're here:

CYTE Decoded Metar

CAPE DORSET in NU, CANADA
Report Time2017-11-21 06:00:00
UTC Time2017-11-21 06:20:28
Flight Rules mvfr MVFR
Wind100° at 35 Gusting to 41 kt
W.Decomp.*RWY 13: 35.0 kt HW 1.8 kt LCW
W.Rank100° ranks 8
Current wind is above 100° avg. (10.1)
Visibility8047 m
Phenomena:Light Rain
Mist
Clouds:Overcast 010 Hf
Expected CloudBase > 400 ft AGL from Temp-Dew spread
Ceiling1,000 ft
Temp00°C (ISA -15)
Dew Point-1°C (93% RH)
AAT-14.7°C
QNH988 hPa
Density Alt-699 ft
Elevation154 ft
Report Wrong Elevation
Raw Report
CYTE 210600Z AUTO 10035G41KT 5SM -RA BR OVC010 00/M01 A2918 RMK
SLP886=

Extra information for CYTE:More info

Metar Taf Metar & Taf Last 4 Metars F.Rules Stats Wind Profile Meteogram Temp Stats Airport Information Weather charts Add Link Nearby VenuesMetar ALERT Operation Metar Decoded Social comments